Time;durP1;ratioP1;P1;durP2;ratioP2;P2;SDS_P1;SDS_P2;PMS_P1;PMS_P2;Temp;Humidity;BMP_temperature;BMP_pressure;BME280_temperature;BME280_humidity;BME280_pressure;Samples;Min_cycle;Max_cycle;Signal;HPM_P1;HPM_P2
2023/12/29 00:00:59;;;;;;;5.88;1.50;;;;;;;7.83;72.06;98843.53;4984322;28;20191;-51
2023/12/29 00:03:27;;;;;;;11.90;1.35;;;;;;;7.81;71.55;98853.00;4983156;28;20512;-49
2023/12/29 00:05:56;;;;;;;11.00;2.05;;;;;;;7.92;71.62;98834.84;4982687;28;20063;-50
2023/12/29 00:08:23;;;;;;;8.85;1.65;;;;;;;7.91;72.23;98846.88;4981357;28;20043;-54
2023/12/29 00:10:50;;;;;;;7.53;1.45;;;;;;;7.97;71.85;98857.13;4981236;28;20038;-49
2023/12/29 00:13:22;;;;;;;4.85;1.40;;;;;;;7.96;72.85;98863.16;4977300;28;20050;-53
2023/12/29 00:15:53;;;;;;;9.32;1.00;;;;;;;8.00;72.68;98865.72;4986170;28;20038;-49
2023/12/29 00:18:19;;;;;;;3.88;1.08;;;;;;;7.96;72.91;98858.00;4978165;28;20055;-50
2023/12/29 00:20:47;;;;;;;11.40;1.67;;;;;;;7.97;73.38;98851.97;4985885;28;20113;-49
2023/12/29 00:23:14;;;;;;;9.38;2.28;;;;;;;7.87;72.96;98855.50;4983576;28;20058;-49
2023/12/29 00:25:42;;;;;;;11.68;1.65;;;;;;;7.91;73.21;98846.88;4981353;28;20053;-49
2023/12/29 00:28:09;;;;;;;11.52;1.75;;;;;;;7.94;72.90;98852.00;4981451;28;20424;-48
2023/12/29 00:30:39;;;;;;;13.98;1.92;;;;;;;7.93;72.53;98842.56;4965393;28;20047;-53
2023/12/29 00:33:23;;;;;;;14.38;2.03;;;;;;;7.87;72.88;98834.88;4980350;28;20097;-47
2023/12/29 00:35:50;;;;;;;11.82;2.00;;;;;;;7.83;73.34;98833.22;4984157;28;20408;-48
2023/12/29 00:38:18;;;;;;;11.18;2.03;;;;;;;7.72;73.82;98841.06;4978408;28;20057;-47
2023/12/29 00:40:45;;;;;;;13.40;1.40;;;;;;;7.78;73.13;98824.69;4983475;28;20050;-45
2023/12/29 00:43:12;;;;;;;8.00;1.52;;;;;;;7.81;74.18;98835.81;4981824;28;20102;-49
2023/12/29 00:45:39;;;;;;;11.77;1.10;;;;;;;7.82;73.63;98837.53;4983322;28;20066;-50
2023/12/29 00:48:06;;;;;;;4.63;1.10;;;;;;;7.81;73.69;98840.13;4980130;28;20053;-51
2023/12/29 00:50:33;;;;;;;9.43;1.52;;;;;;;7.84;73.46;98829.78;4983137;28;20060;-53
2023/12/29 00:52:59;;;;;;;6.78;2.38;;;;;;;7.79;73.83;98818.66;4981337;28;20042;-47
2023/12/29 00:55:26;;;;;;;12.27;1.77;;;;;;;7.76;74.47;98816.09;4982602;28;20497;-53
2023/12/29 00:57:54;;;;;;;12.68;2.85;;;;;;;7.76;73.50;98810.94;4983875;28;20868;-49
2023/12/29 01:00:21;;;;;;;14.27;2.15;;;;;;;7.71;74.28;98798.97;4983186;28;20074;-49
2023/12/29 01:02:47;;;;;;;6.93;0.90;;;;;;;7.66;73.73;98795.59;4986205;28;20577;-53
2023/12/29 01:05:17;;;;;;;6.72;1.50;;;;;;;7.67;74.60;98793.88;4980086;28;20042;-52
2023/12/29 01:07:44;;;;;;;;;;;;;;;7.57;73.88;98800.88;4971888;28;20054;-50
2023/12/29 01:10:14;;;;;;;13.80;1.80;;;;;;;7.61;74.29;98797.38;4989169;28;19922;-48
2023/12/29 01:12:42;;;;;;;;;;;;;;;7.50;75.00;98796.66;4990453;28;20262;-52
2023/12/29 01:15:14;;;;;;;3.70;1.45;;;;;;;7.54;74.35;98795.75;4988507;28;20004;-49
2023/12/29 01:17:44;;;;;;;5.50;1.75;;;;;;;7.54;75.07;98813.78;4988461;28;20050;-51
2023/12/29 01:20:13;;;;;;;7.38;1.05;;;;;;;7.54;74.53;98816.34;4984032;28;20047;-49
2023/12/29 01:22:40;;;;;;;9.10;1.83;;;;;;;7.58;75.12;98818.03;4986300;28;20057;-50
2023/12/29 01:25:07;;;;;;;7.45;1.77;;;;;;;7.57;74.41;98821.47;4982457;28;20051;-45
2023/12/29 01:27:33;;;;;;;9.10;1.58;;;;;;;7.63;74.60;98813.66;4988717;28;20050;-49
2023/12/29 01:30:00;;;;;;;9.90;1.13;;;;;;;7.65;74.41;98814.53;4988277;28;20050;-51
2023/12/29 01:32:27;;;;;;;6.35;1.20;;;;;;;7.57;74.29;98821.47;4990692;28;20046;-51
2023/12/29 01:34:57;;;;;;;5.35;1.20;;;;;;;7.67;74.36;98825.66;4988334;28;20511;-48
2023/12/29 01:37:25;;;;;;;12.95;1.50;;;;;;;7.71;74.40;98816.19;4989932;28;20377;-47
2023/12/29 01:39:54;;;;;;;10.13;1.20;;;;;;;7.69;74.66;98821.34;4988826;28;20066;-48
2023/12/29 01:42:21;;;;;;;7.47;1.27;;;;;;;7.72;74.50;98816.16;4984607;28;20048;-53
2023/12/29 01:44:54;;;;;;;8.90;1.17;;;;;;;7.72;75.18;98823.91;4988706;28;20050;-47
2023/12/29 01:47:22;;;;;;;6.63;0.95;;;;;;;7.72;74.89;98811.00;4988588;28;20108;-48
2023/12/29 01:49:49;;;;;;;8.15;1.98;;;;;;;7.75;75.10;98816.97;4986618;28;20517;-51
2023/12/29 01:52:17;;;;;;;11.55;1.20;;;;;;;7.70;75.18;98823.03;4990370;28;20534;-52
2023/12/29 01:54:47;;;;;;;6.00;1.25;;;;;;;7.71;75.13;98829.06;4992044;28;20058;-50
2023/12/29 01:57:14;;;;;;;8.73;1.30;;;;;;;7.70;75.24;98823.03;4991837;28;20644;-48
2023/12/29 01:59:43;;;;;;;7.88;1.92;;;;;;;7.67;74.81;98817.91;4990292;28;20050;-54
2023/12/29 02:02:10;;;;;;;5.43;1.08;;;;;;;7.68;74.88;98814.50;4990948;28;20101;-44
2023/12/29 02:04:39;;;;;;;6.07;1.05;;;;;;;7.68;74.60;98804.19;4992351;28;20072;-49
2023/12/29 02:07:06;;;;;;;6.40;1.60;;;;;;;7.68;74.85;98809.34;4992482;28;20046;-52
2023/12/29 02:09:34;;;;;;;4.78;1.40;;;;;;;7.66;73.83;98821.38;4986158;28;20104;-47
2023/12/29 02:12:02;;;;;;;8.63;1.15;;;;;;;7.68;73.64;98819.66;4977806;28;20050;-52
2023/12/29 02:14:29;;;;;;;4.97;0.55;;;;;;;7.72;74.19;98823.91;4988889;28;20053;-51
2023/12/29 02:22:14;;;;;;;5.07;0.60;;;;;;;7.71;73.28;98845.38;5101886;27;20381;-50
2023/12/29 02:24:49;;;;;;;8.82;1.02;;;;;;;7.70;73.01;98843.66;5040745;28;20053;-46
2023/12/29 02:32:42;;;;;;;1.80;0.32;;;;;;;7.71;74.24;98842.78;5055464;28;20393;-48
2023/12/29 02:35:15;;;;;;;10.13;0.80;;;;;;;7.77;73.16;98849.59;5044544;28;20051;-50
2023/12/29 02:37:42;;;;;;;6.53;0.55;;;;;;;7.70;73.43;98843.66;5075994;28;20060;-51
2023/12/29 02:40:11;;;;;;;3.75;0.65;;;;;;;7.74;74.44;98828.16;5040100;28;20045;-46
2023/12/29 02:42:38;;;;;;;2.88;0.73;;;;;;;7.68;74.02;98818.78;5038066;28;20049;-48
2023/12/29 02:45:05;;;;;;;2.95;0.63;;;;;;;7.71;73.99;98818.75;5041000;28;20122;-49
2023/12/29 02:47:31;;;;;;;7.88;1.48;;;;;;;7.71;74.95;98821.34;5040469;28;20049;-51
2023/12/29 02:49:58;;;;;;;1.70;0.80;;;;;;;7.66;74.08;98835.97;5038222;28;20049;-53
2023/12/29 02:52:25;;;;;;;10.57;0.85;;;;;;;7.61;74.95;98833.47;5040049;28;20128;-49
2023/12/29 02:54:52;;;;;;;6.93;0.98;;;;;;;7.58;74.58;98824.03;5038347;28;20411;-53
2023/12/29 02:57:18;;;;;;;4.45;0.68;;;;;;;7.57;74.46;98824.91;5044287;28;20155;-51
2023/12/29 02:59:45;;;;;;;12.02;1.30;;;;;;;7.52;75.49;98823.22;5038064;28;20084;-50
2023/12/29 03:02:12;;;;;;;10.35;1.35;;;;;;;7.50;75.58;98832.72;5030707;28;20045;-54
2023/12/29 03:04:39;;;;;;;6.53;0.93;;;;;;;7.46;75.51;98830.16;5036952;28;20465;-52
2023/12/29 03:07:06;;;;;;;7.97;0.88;;;;;;;7.43;75.26;98825.03;5043636;28;20041;-48
2023/12/29 03:09:32;;;;;;;6.63;1.10;;;;;;;7.40;75.11;98829.38;5035720;28;20053;-50
2023/12/29 03:11:59;;;;;;;6.25;0.93;;;;;;;7.37;75.23;98825.09;5044619;28;20072;-48
2023/12/29 03:14:26;;;;;;;7.25;0.63;;;;;;;7.36;75.57;98836.25;5042252;28;20053;-50
2023/12/29 03:16:52;;;;;;;3.83;0.75;;;;;;;7.36;74.78;98836.25;5042546;28;20521;-53
2023/12/29 03:19:20;;;;;;;4.47;0.80;;;;;;;7.39;74.27;98851.69;5040314;28;20057;-50
2023/12/29 03:21:49;;;;;;;2.30;0.60;;;;;;;7.39;74.72;98843.97;5044472;28;20111;-51
2023/12/29 03:24:15;;;;;;;3.15;0.63;;;;;;;7.32;74.79;98844.88;5041244;28;20049;-46
2023/12/29 03:26:42;;;;;;;5.07;0.50;;;;;;;7.36;74.07;98828.53;5040888;28;20049;-49
2023/12/29 03:29:09;;;;;;;2.38;0.55;;;;;;;7.35;74.54;98831.97;5038810;28;20041;-51
2023/12/29 03:31:36;;;;;;;5.18;0.70;;;;;;;7.32;74.85;98838.03;5040821;28;20494;-53
2023/12/29 03:34:04;;;;;;;3.17;0.82;;;;;;;7.25;73.44;98835.50;5043320;28;20056;-46
2023/12/29 03:36:32;;;;;;;3.03;0.75;;;;;;;7.29;74.64;98838.03;5036469;28;20562;-51
2023/12/29 03:38:59;;;;;;;4.70;0.60;;;;;;;7.28;73.98;98840.63;5040874;28;20040;-51
2023/12/29 03:41:26;;;;;;;4.45;0.47;;;;;;;7.25;74.82;98836.38;5037193;28;20041;-52
2023/12/29 03:43:52;;;;;;;2.38;0.45;;;;;;;7.26;73.94;98832.91;5033991;28;20044;-51
2023/12/29 03:46:21;;;;;;;1.58;0.32;;;;;;;7.18;74.59;98824.41;5022549;28;20049;-52
2023/12/29 03:48:48;;;;;;;2.38;0.68;;;;;;;7.24;74.75;98823.50;5028952;28;20073;-53
2023/12/29 03:51:15;;;;;;;3.20;0.45;;;;;;;7.23;74.75;98816.66;5021463;28;20049;-52
2023/12/29 03:53:44;;;;;;;2.85;0.65;;;;;;;7.23;73.97;98817.47;5020082;28;20057;-47
2023/12/29 03:56:15;;;;;;;4.10;0.73;;;;;;;7.12;74.25;98809.84;5029300;28;20100;-50
2023/12/29 03:58:43;;;;;;;3.17;0.73;;;;;;;7.20;73.65;98808.06;5020040;28;20308;-46
2023/12/29 04:01:11;;;;;;;4.22;2.00;;;;;;;7.18;75.02;98812.38;5026191;28;20894;-50
2023/12/29 04:03:40;;;;;;;3.05;0.70;;;;;;;7.16;74.82;98816.69;5024881;28;20491;-47
2023/12/29 04:06:07;;;;;;;1.88;0.95;;;;;;;7.14;74.46;98818.44;5028135;28;20050;-50
2023/12/29 04:08:35;;;;;;;3.42;0.68;;;;;;;7.19;75.32;98821.81;5025934;28;20100;-48
2023/12/29 04:11:02;;;;;;;0.65;0.65;;;;;;;7.14;74.69;98826.16;5018916;28;20100;-46
2023/12/29 04:13:29;;;;;;;5.10;0.75;;;;;;;7.14;74.32;98813.28;5019859;28;20049;-51
2023/12/29 04:15:56;;;;;;;6.50;0.52;;;;;;;7.18;74.29;98820.13;5017403;28;20392;-46
2023/12/29 04:18:24;;;;;;;2.22;0.63;;;;;;;7.16;75.12;98816.69;5019160;28;20049;-52
2023/12/29 04:20:51;;;;;;;5.68;0.50;;;;;;;7.20;74.38;98813.22;5006417;28;20124;-49
2023/12/29 04:23:18;;;;;;;2.10;0.55;;;;;;;7.22;74.56;98814.94;5027286;28;20495;-47
2023/12/29 04:25:44;;;;;;;4.82;1.13;;;;;;;7.20;74.32;98813.22;5027637;28;20131;-49
2023/12/29 04:28:11;;;;;;;2.92;0.47;;;;;;;7.20;75.47;98828.66;5023208;28;20049;-45
2023/12/29 04:30:39;;;;;;;3.65;0.73;;;;;;;7.18;75.89;98819.25;4996236;28;20058;-52
2023/12/29 04:33:06;;;;;;;4.57;0.70;;;;;;;7.22;74.46;98825.25;5003207;28;20068;-51
2023/12/29 04:35:32;;;;;;;5.57;0.30;;;;;;;7.22;74.71;98820.09;5011723;28;20052;-49
2023/12/29 04:37:59;;;;;;;3.80;0.30;;;;;;;7.17;74.74;98823.53;5024391;28;20045;-49
2023/12/29 04:40:26;;;;;;;6.07;1.05;;;;;;;7.14;75.54;98810.72;5026189;28;20044;-51
2023/12/29 04:42:54;;;;;;;1.08;0.75;;;;;;;7.09;74.75;98819.34;5027792;28;20044;-53
2023/12/29 04:45:21;;;;;;;3.75;0.57;;;;;;;7.00;75.74;98807.38;5031300;28;20132;-49
2023/12/29 04:47:48;;;;;;;1.88;0.57;;;;;;;6.98;76.18;98806.53;5023635;28;20049;-50
2023/12/29 04:50:14;;;;;;;4.50;0.77;;;;;;;6.93;75.72;98804.84;5024225;28;20068;-50
2023/12/29 04:52:42;;;;;;;5.40;0.32;;;;;;;6.87;75.48;98804.91;5027543;28;20474;-50
2023/12/29 04:55:12;;;;;;;11.38;0.90;;;;;;;6.88;75.15;98819.50;5022392;28;20049;-47
2023/12/29 04:57:41;;;;;;;5.13;0.50;;;;;;;6.82;76.81;98816.94;4996792;28;20054;-51
2023/12/29 05:00:08;;;;;;;4.53;1.13;;;;;;;6.78;77.14;98812.69;5018916;28;20064;-50
2023/12/29 05:02:34;;;;;;;3.75;0.70;;;;;;;6.77;75.89;98813.56;5029443;28;20054;-48
2023/12/29 05:05:01;;;;;;;3.97;0.80;;;;;;;6.77;77.09;98814.44;5028301;28;20060;-49
2023/12/29 05:07:28;;;;;;;1.95;0.52;;;;;;;6.74;75.80;98813.59;5025419;28;20054;-48
2023/12/29 05:09:55;;;;;;;3.60;0.55;;;;;;;6.74;75.68;98813.59;5023851;28;20058;-48
2023/12/29 05:12:21;;;;;;;5.65;0.82;;;;;;;6.67;76.36;98813.66;5028217;28;20045;-49
2023/12/29 05:14:48;;;;;;;1.95;0.93;;;;;;;6.65;76.16;98815.34;5009400;28;20470;-46
2023/12/29 05:17:15;;;;;;;7.95;1.55;;;;;;;6.67;76.96;98823.06;5000394;28;20048;-47
2023/12/29 05:19:41;;;;;;;4.80;0.75;;;;;;;6.64;77.12;98821.38;5005820;28;20049;-50
2023/12/29 05:22:08;;;;;;;2.28;0.57;;;;;;;6.66;76.49;98832.50;5023906;28;20049;-47
2023/12/29 05:24:35;;;;;;;6.53;0.65;;;;;;;6.63;76.83;98829.97;5026121;28;20061;-48
2023/12/29 05:27:04;;;;;;;4.15;0.77;;;;;;;6.64;76.33;98828.22;5021389;28;20169;-51
2023/12/29 05:29:30;;;;;;;3.63;0.85;;;;;;;6.62;75.91;98830.81;5017523;28;20045;-51
2023/12/29 05:31:57;;;;;;;2.83;0.60;;;;;;;6.66;77.19;98824.78;5025362;28;20045;-48
2023/12/29 05:34:23;;;;;;;3.33;0.88;;;;;;;6.66;76.07;98827.34;5024307;28;20128;-50
2023/12/29 05:36:50;;;;;;;1.98;0.60;;;;;;;6.67;76.84;98834.22;5022094;28;20141;-50
2023/12/29 05:39:18;;;;;;;5.35;0.73;;;;;;;6.68;76.77;98841.06;5026293;28;20052;-48
2023/12/29 05:41:45;;;;;;;3.70;0.40;;;;;;;6.60;76.92;98841.97;5024092;28;20478;-48
2023/12/29 05:44:12;;;;;;;2.28;0.38;;;;;;;6.61;76.26;98848.81;5027436;28;20049;-51
2023/12/29 05:46:46;;;;;;;6.60;0.88;;;;;;;6.70;76.30;98856.50;5027689;28;20051;-50
2023/12/29 05:49:13;;;;;;;1.50;0.35;;;;;;;6.65;76.33;98848.81;5025165;28;20053;-53
2023/12/29 05:51:39;;;;;;;2.85;0.85;;;;;;;6.64;76.74;98848.81;5029084;28;20049;-49
2023/12/29 05:54:07;;;;;;;5.25;0.60;;;;;;;6.63;76.62;98853.13;5012941;28;20495;-50
2023/12/29 05:56:34;;;;;;;2.67;0.57;;;;;;;6.64;75.04;98859.97;5019615;28;20658;-48
2023/12/29 05:59:01;;;;;;;1.90;0.55;;;;;;;6.63;76.25;98853.13;5025286;28;20060;-49
2023/12/29 06:01:27;;;;;;;8.70;0.75;;;;;;;6.70;75.61;98853.94;5024885;28;20483;-50
2023/12/29 06:03:56;;;;;;;4.95;0.80;;;;;;;6.69;75.66;98852.22;5020825;28;20107;-49
2023/12/29 06:06:22;;;;;;;4.30;0.57;;;;;;;6.68;76.17;98848.78;5022072;28;20077;-53
2023/12/29 06:08:49;;;;;;;4.78;1.58;;;;;;;6.69;74.71;98852.22;5028145;28;20206;-53
2023/12/29 06:11:16;;;;;;;3.38;0.75;;;;;;;6.68;76.04;98859.09;5024539;28;20051;-48
2023/12/29 06:13:43;;;;;;;1.33;0.38;;;;;;;6.62;75.99;98859.09;5023371;28;20072;-50
2023/12/29 06:16:10;;;;;;;2.70;0.25;;;;;;;6.64;75.24;98865.13;5024176;28;20108;-49
2023/12/29 06:18:36;;;;;;;6.78;1.15;;;;;;;6.63;75.76;98863.41;5024488;28;20069;-48
2023/12/29 06:21:05;;;;;;;6.90;0.85;;;;;;;6.64;75.12;98870.25;5020574;28;20056;-53
2023/12/29 06:23:32;;;;;;;3.45;0.38;;;;;;;6.62;75.08;98866.81;5019484;28;20061;-48
2023/12/29 06:25:58;;;;;;;3.88;0.75;;;;;;;6.60;76.15;98863.44;5020577;28;20365;-48
2023/12/29 06:28:25;;;;;;;3.70;0.50;;;;;;;6.60;75.11;98876.28;5023896;28;20132;-50
2023/12/29 06:30:52;;;;;;;4.75;0.98;;;;;;;6.60;74.72;98881.44;5016778;28;20053;-52
2023/12/29 06:33:21;;;;;;;4.15;0.75;;;;;;;6.59;74.68;98877.16;5018613;28;20049;-48
2023/12/29 06:35:48;;;;;;;11.20;0.77;;;;;;;6.59;75.08;98884.88;5014304;28;20050;-48
2023/12/29 06:38:15;;;;;;;5.10;0.88;;;;;;;6.58;75.15;98883.16;5025345;28;20053;-47
2023/12/29 06:40:41;;;;;;;13.05;1.13;;;;;;;6.53;73.86;98892.63;5020423;28;20061;-48
2023/12/29 06:43:08;;;;;;;3.50;0.52;;;;;;;6.46;75.07;98896.06;5021049;28;20042;-45
2023/12/29 06:45:35;;;;;;;4.05;0.88;;;;;;;6.51;74.04;98889.19;5024752;28;20053;-47
2023/12/29 06:48:02;;;;;;;5.18;0.77;;;;;;;6.46;74.57;98886.66;5023938;28;20111;-50
2023/12/29 06:50:29;;;;;;;3.05;1.05;;;;;;;6.52;74.41;98880.63;5030010;28;20045;-52
2023/12/29 06:52:57;;;;;;;6.70;1.30;;;;;;;6.47;74.50;98884.91;5023026;28;20053;-51
2023/12/29 06:55:26;;;;;;;1.67;0.95;;;;;;;6.42;73.91;98874.69;5017474;28;20065;-48
2023/12/29 06:57:53;;;;;;;9.52;0.88;;;;;;;6.46;74.04;98885.78;4996037;28;20117;-48
2023/12/29 07:00:19;;;;;;;11.40;1.13;;;;;;;6.47;73.74;98893.50;5013003;28;20042;-48
2023/12/29 07:02:46;;;;;;;10.52;1.45;;;;;;;6.45;73.32;98884.91;5018402;28;20041;-50
2023/12/29 07:05:13;;;;;;;5.57;1.35;;;;;;;6.40;73.97;98891.81;5022296;28;20045;-53
2023/12/29 07:07:40;;;;;;;6.47;1.58;;;;;;;6.40;73.79;98892.69;5021360;28;20053;-51
2023/12/29 07:10:07;;;;;;;6.88;0.60;;;;;;;6.40;74.38;98897.81;5024184;28;20345;-51
2023/12/29 07:12:37;;;;;;;3.78;0.77;;;;;;;6.40;74.47;98902.97;5025256;28;20529;-49
2023/12/29 07:15:04;;;;;;;9.55;1.10;;;;;;;6.39;72.94;98910.69;5010594;28;20049;-48
2023/12/29 07:17:30;;;;;;;4.10;0.60;;;;;;;6.34;74.25;98913.28;5010669;28;20550;-48
2023/12/29 07:19:57;;;;;;;4.97;0.80;;;;;;;6.36;73.16;98916.72;5032462;28;20051;-48
2023/12/29 07:22:24;;;;;;;3.28;1.02;;;;;;;6.33;73.49;98916.72;5027318;28;20042;-50
2023/12/29 07:24:53;;;;;;;3.38;0.57;;;;;;;6.32;74.30;98920.16;5026789;28;20449;-49
2023/12/29 07:27:20;;;;;;;9.13;0.88;;;;;;;6.31;73.14;98923.56;5022217;28;20050;-47
2023/12/29 07:29:47;;;;;;;11.07;1.23;;;;;;;6.28;74.21;98923.56;5027156;28;20073;-46
2023/12/29 07:32:13;;;;;;;12.15;0.88;;;;;;;6.29;74.22;98930.44;5029835;28;20053;-51
2023/12/29 07:34:40;;;;;;;5.55;0.80;;;;;;;6.30;74.81;98927.88;5029834;28;20041;-49
2023/12/29 07:37:09;;;;;;;3.20;0.75;;;;;;;6.25;73.82;98929.59;5025290;28;20048;-51
2023/12/29 07:39:37;;;;;;;7.80;1.25;;;;;;;6.28;73.89;98933.84;5026635;28;20045;-47
2023/12/29 07:42:04;;;;;;;9.00;0.80;;;;;;;6.26;74.80;98940.72;5009622;28;20046;-48
2023/12/29 07:44:32;;;;;;;1.85;1.05;;;;;;;6.20;74.51;98925.31;5019485;28;20084;-52
2023/12/29 07:46:58;;;;;;;9.05;0.95;;;;;;;6.21;74.87;98927.03;5023724;28;20045;-52
2023/12/29 07:49:26;;;;;;;9.40;1.13;;;;;;;6.23;75.07;98931.31;5029332;28;20136;-49
2023/12/29 07:51:53;;;;;;;6.63;1.08;;;;;;;6.21;75.16;98937.31;5025322;28;20141;-49
2023/12/29 07:54:19;;;;;;;6.50;1.00;;;;;;;6.21;74.64;98942.47;5027704;28;20038;-51
2023/12/29 07:56:46;;;;;;;5.75;0.73;;;;;;;6.17;74.13;98939.91;5023607;28;20049;-47
2023/12/29 07:59:13;;;;;;;11.23;2.95;;;;;;;6.15;74.55;98944.19;5026200;28;20581;-48
2023/12/29 08:01:39;;;;;;;6.63;1.10;;;;;;;6.13;73.68;98948.47;5021471;28;20558;-52
2023/12/29 08:04:06;;;;;;;6.60;0.82;;;;;;;6.10;74.42;98956.19;5018520;28;20052;-50
2023/12/29 08:06:33;;;;;;;5.68;1.10;;;;;;;6.04;73.85;98951.06;5026797;28;20049;-46
2023/12/29 08:09:00;;;;;;;5.10;1.50;;;;;;;6.00;74.36;98955.34;5023259;28;20049;-52
2023/12/29 08:11:27;;;;;;;6.03;0.82;;;;;;;5.99;73.92;98952.75;5029915;28;20060;-48
2023/12/29 08:13:53;;;;;;;6.18;0.95;;;;;;;5.92;75.19;98955.31;5018096;28;20050;-52
2023/12/29 08:16:20;;;;;;;3.03;0.57;;;;;;;5.88;75.32;98951.06;5007120;28;20050;-45
2023/12/29 08:18:49;;;;;;;5.38;0.60;;;;;;;5.88;74.12;98956.19;5007051;28;20569;-44
2023/12/29 08:21:18;;;;;;;8.93;1.75;;;;;;;5.86;73.95;98957.91;5007090;28;20513;-48
2023/12/29 08:23:47;;;;;;;7.47;0.90;;;;;;;5.86;75.27;98957.06;5016874;28;20041;-46
2023/12/29 08:26:14;;;;;;;6.82;1.08;;;;;;;5.83;74.64;98955.34;5024730;28;20054;-48
2023/12/29 08:28:41;;;;;;;7.90;0.90;;;;;;;5.85;75.76;98956.22;5026641;28;20049;-51
2023/12/29 08:31:08;;;;;;;8.52;0.73;;;;;;;5.85;75.57;98951.09;5019350;28;20410;-48
2023/12/29 08:33:35;;;;;;;5.75;1.33;;;;;;;5.83;76.03;98952.78;5023428;28;20411;-48
2023/12/29 08:36:03;;;;;;;4.47;1.15;;;;;;;5.88;74.85;98958.75;5019375;28;20076;-49
2023/12/29 08:38:31;;;;;;;8.00;0.70;;;;;;;5.86;74.80;98965.63;5024892;28;20068;-48
2023/12/29 08:40:59;;;;;;;1.85;0.70;;;;;;;5.86;75.43;98962.19;5020852;28;20051;-48
2023/12/29 08:43:26;;;;;;;5.38;1.17;;;;;;;5.90;74.95;98958.75;5021854;28;20487;-46
2023/12/29 08:45:54;;;;;;;7.72;0.77;;;;;;;5.90;75.28;98969.91;5024614;28;20042;-46
2023/12/29 08:48:20;;;;;;;4.43;1.10;;;;;;;5.92;75.30;98972.47;5026818;28;20120;-49
2023/12/29 08:50:48;;;;;;;5.28;0.77;;;;;;;5.92;75.39;98965.59;5018748;28;20064;-46
2023/12/29 08:53:15;;;;;;;13.05;1.48;;;;;;;5.92;75.26;98967.34;5027888;28;20048;-49
2023/12/29 08:55:43;;;;;;;3.40;1.10;;;;;;;5.94;76.33;98962.19;5026749;28;20546;-49
2023/12/29 08:58:10;;;;;;;12.23;1.45;;;;;;;5.96;75.43;98968.19;5020546;28;20041;-52
2023/12/29 09:00:37;;;;;;;6.88;1.60;;;;;;;5.99;74.89;98969.06;5019922;28;20055;-48
2023/12/29 09:03:04;;;;;;;9.85;2.75;;;;;;;6.04;75.60;98963.91;5025862;28;20041;-49
2023/12/29 09:05:31;;;;;;;11.77;2.00;;;;;;;6.04;74.83;98980.19;5025514;28;20051;-51
2023/12/29 09:07:57;;;;;;;6.70;0.95;;;;;;;6.06;75.63;98990.50;5022864;28;20049;-51
2023/12/29 09:10:26;;;;;;;7.18;1.05;;;;;;;6.08;76.54;98981.03;5022530;28;20042;-52
2023/12/29 09:12:52;;;;;;;5.43;1.77;;;;;;;6.09;75.09;98993.06;5024414;28;20045;-50
2023/12/29 09:15:20;;;;;;;7.00;1.27;;;;;;;6.12;75.91;98980.16;5023817;28;20407;-49
2023/12/29 09:17:47;;;;;;;7.90;1.50;;;;;;;6.08;76.60;98988.75;5009845;28;20076;-52
2023/12/29 09:20:14;;;;;;;3.00;0.93;;;;;;;6.11;75.10;98996.47;5025952;28;20429;-49
2023/12/29 09:22:41;;;;;;;15.95;2.65;;;;;;;6.17;76.50;99004.19;5022776;28;20525;-49
2023/12/29 09:25:08;;;;;;;6.32;1.60;;;;;;;6.19;75.43;98991.31;5027094;28;20052;-52
2023/12/29 09:27:35;;;;;;;10.23;1.85;;;;;;;6.25;75.51;98990.47;5026508;28;20049;-49
2023/12/29 09:30:03;;;;;;;7.50;1.48;;;;;;;6.27;75.05;98993.88;5022069;28;20057;-51
2023/12/29 09:32:30;;;;;;;4.40;1.40;;;;;;;6.35;75.94;98996.44;5026076;28;20046;-48
2023/12/29 09:34:57;;;;;;;3.13;1.38;;;;;;;6.38;76.44;98988.72;5026555;28;20160;-49
2023/12/29 09:37:24;;;;;;;7.07;1.50;;;;;;;6.44;74.81;98991.25;5024978;28;20064;-43
2023/12/29 09:39:52;;;;;;;6.00;1.90;;;;;;;6.52;74.86;98988.69;5018810;28;20046;-53
2023/12/29 09:42:22;;;;;;;10.90;2.22;;;;;;;6.53;75.41;99000.66;5013933;28;20495;-49
2023/12/29 09:44:51;;;;;;;6.30;1.08;;;;;;;6.59;74.77;99004.94;5022238;28;20045;-49
2023/12/29 09:47:23;;;;;;;3.05;1.02;;;;;;;6.61;75.06;99005.78;5024421;28;20498;-48
2023/12/29 09:49:52;;;;;;;5.95;0.70;;;;;;;6.60;74.57;99033.25;5024802;28;20506;-45
2023/12/29 09:52:20;;;;;;;7.38;1.00;;;;;;;6.63;74.62;99028.09;5020626;28;20132;-49
2023/12/29 09:54:49;;;;;;;12.07;1.40;;;;;;;6.67;74.79;99019.50;5024565;28;20048;-48
2023/12/29 09:57:18;;;;;;;5.75;1.90;;;;;;;6.71;74.85;99014.31;5020242;28;20051;-45
2023/12/29 09:59:46;;;;;;;12.40;1.63;;;;;;;6.73;74.88;99020.31;5028034;28;20049;-48
2023/12/29 10:02:15;;;;;;;8.23;1.50;;;;;;;6.77;75.29;99016.88;5027199;28;20042;-49
2023/12/29 10:04:42;;;;;;;5.97;2.03;;;;;;;6.79;75.17;99028.03;5024989;28;20505;-51
2023/12/29 10:07:17;;;;;;;3.97;0.70;;;;;;;6.78;75.35;99019.44;5023436;28;20045;-52
2023/12/29 10:09:47;;;;;;;6.55;1.15;;;;;;;6.84;75.39;99031.44;5017182;28;20049;-49
2023/12/29 10:12:15;;;;;;;11.23;1.52;;;;;;;6.82;74.11;99028.00;5016208;28;20049;-47
2023/12/29 10:20:24;;;;;;;6.55;2.33;;;;;;;6.89;73.99;99034.84;5055627;27;20398;-47
2023/12/29 10:25:30;;;;;;;21.23;5.90;;;;;;;7.28;73.34;99032.09;5064926;27;20394;-53
2023/12/29 10:27:57;;;;;;;11.85;3.55;;;;;;;7.11;74.57;99039.91;5020600;28;20057;-47
2023/12/29 10:30:24;;;;;;;17.73;6.32;;;;;;;7.07;74.42;99038.22;5010533;28;20077;-46
2023/12/29 10:33:01;;;;;;;4.65;0.70;;;;;;;7.05;73.95;99034.78;5019172;28;20509;-49
2023/12/29 10:35:34;;;;;;;5.82;0.73;;;;;;;7.03;73.70;99036.53;5011044;28;20506;-48
2023/12/29 10:38:10;;;;;;;7.82;2.72;;;;;;;7.05;74.24;99045.06;5016878;28;20555;-47
2023/12/29 10:40:39;;;;;;;5.78;2.25;;;;;;;7.08;73.98;99039.91;5021719;28;20506;-47
2023/12/29 10:43:07;;;;;;;7.03;2.00;;;;;;;7.10;74.42;99040.78;5016164;28;20056;-50
2023/12/29 10:45:36;;;;;;;9.05;2.17;;;;;;;7.13;75.22;99048.47;5011676;28;20042;-48
2023/12/29 10:48:03;;;;;;;8.82;2.15;;;;;;;7.16;74.00;99047.63;5020633;28;20057;-49
2023/12/29 10:50:30;;;;;;;12.40;2.42;;;;;;;7.15;74.07;99057.06;5014171;28;20050;-47
2023/12/29 10:53:12;;;;;;;9.68;2.03;;;;;;;7.16;73.67;99063.06;5021738;28;20053;-48
2023/12/29 10:55:39;;;;;;;13.00;1.85;;;;;;;7.20;74.76;99069.91;5014831;28;20050;-49
2023/12/29 10:58:05;;;;;;;12.25;2.92;;;;;;;7.24;74.73;99060.44;5009684;28;20046;-48
2023/12/29 11:00:32;;;;;;;4.75;2.13;;;;;;;7.25;74.19;99059.56;5020265;28;20823;-49
2023/12/29 11:03:00;;;;;;;9.18;1.83;;;;;;;7.26;74.90;99051.84;5010254;28;20050;-48
2023/12/29 11:05:28;;;;;;;3.70;1.65;;;;;;;7.26;74.09;99054.41;5004269;28;20053;-48
2023/12/29 11:07:55;;;;;;;11.30;1.45;;;;;;;7.30;74.77;99044.97;5004550;28;20046;-49
2023/12/29 11:10:22;;;;;;;5.22;1.77;;;;;;;7.28;74.90;99052.69;5004139;28;20058;-51
2023/12/29 11:12:49;;;;;;;9.05;1.25;;;;;;;7.31;74.66;99046.69;5005854;28;20054;-48
2023/12/29 11:15:17;;;;;;;7.60;1.95;;;;;;;7.35;73.88;99048.38;5001809;28;20406;-48
2023/12/29 11:17:49;;;;;;;7.97;1.98;;;;;;;7.35;74.62;99038.06;5001207;28;20073;-55
2023/12/29 11:20:16;;;;;;;4.80;0.60;;;;;;;7.37;74.77;99036.34;5007028;28;20042;-51
2023/12/29 11:22:46;;;;;;;8.55;1.75;;;;;;;7.42;74.80;99029.44;5017641;28;20062;-48
2023/12/29 11:25:15;;;;;;;7.70;1.65;;;;;;;7.43;74.92;99031.13;4999569;28;20050;-51
2023/12/29 11:27:43;;;;;;;8.57;2.28;;;;;;;7.45;73.83;99039.72;5000341;28;20054;-51
2023/12/29 11:30:13;;;;;;;9.07;1.42;;;;;;;7.46;74.40;99030.25;5002691;28;20050;-49
2023/12/29 11:35:30;;;;;;;9.15;2.40;;;;;;;7.53;74.66;99043.97;5074078;27;20404;-49
2023/12/29 11:41:00;;;;;;;13.55;2.15;;;;;;;7.52;73.91;99044.81;5023035;28;20395;-50
2023/12/29 11:43:26;;;;;;;3.05;1.02;;;;;;;7.52;74.36;99039.66;4996388;28;20069;-52
2023/12/29 11:45:53;;;;;;;4.25;1.58;;;;;;;7.52;73.68;99035.38;5004844;28;20058;-51
2023/12/29 11:48:58;;;;;;;7.95;1.08;;;;;;;7.53;73.96;99041.41;5004425;28;20046;-52
2023/12/29 11:51:43;;;;;;;7.03;1.05;;;;;;;7.52;74.12;99039.66;5004252;28;21459;-49
2023/12/29 11:54:22;;;;;;;6.40;1.30;;;;;;;7.56;73.86;99036.19;5008215;28;20128;-50
2023/12/29 11:56:49;;;;;;;6.40;1.70;;;;;;;7.54;73.25;99043.94;5016573;28;20053;-51
2023/12/29 11:59:27;;;;;;;4.72;1.48;;;;;;;7.54;73.25;99049.09;5010044;28;20046;-52
2023/12/29 12:01:56;;;;;;;10.80;1.77;;;;;;;7.61;74.17;99039.63;4998468;28;20050;-47
2023/12/29 12:04:44;;;;;;;3.10;0.60;;;;;;;7.59;73.29;99031.03;5004541;28;20148;-53
2023/12/29 12:13:02;;;;;;;3.85;0.68;;;;;;;7.64;72.83;99033.59;5084972;27;21079;-52
2023/12/29 12:18:07;;;;;;;10.43;2.20;;;;;;;7.70;73.54;99049.03;5053466;27;20857;-50